createdAt,value
2017-11-12T00:01:02.154Z,7.80
2017-11-12T00:03:37.013Z,10.80
2017-11-12T00:06:12.037Z,8.93
2017-11-12T00:08:46.793Z,7.40
2017-11-12T00:11:21.913Z,9.07
2017-11-12T00:13:56.936Z,6.97
2017-11-12T00:16:31.828Z,6.83
2017-11-12T00:19:06.634Z,12.13
2017-11-12T00:21:42.101Z,8.73
2017-11-12T00:24:16.794Z,10.07
2017-11-12T00:26:51.297Z,7.53
2017-11-12T00:29:26.194Z,10.30
2017-11-12T00:32:00.825Z,6.50
2017-11-12T00:34:35.629Z,6.50
2017-11-12T00:37:10.305Z,12.77
2017-11-12T00:39:45.117Z,9.03
2017-11-12T00:42:19.657Z,13.70
2017-11-12T00:44:54.092Z,9.30
2017-11-12T00:47:29.157Z,14.67
2017-11-12T00:50:03.817Z,15.03
2017-11-12T00:52:38.718Z,6.80
2017-11-12T00:55:13.504Z,19.07
2017-11-12T00:57:48.245Z,6.10
2017-11-12T01:00:23.907Z,7.77
2017-11-12T01:02:58.581Z,11.80
2017-11-12T01:05:33.353Z,15.53
2017-11-12T01:08:08.468Z,9.20
2017-11-12T01:10:43.128Z,8.10
2017-11-12T01:13:18.233Z,11.13
2017-11-12T01:15:53.261Z,8.67
2017-11-12T01:18:28.266Z,8.43
2017-11-12T01:21:03.161Z,8.47
2017-11-12T01:23:37.897Z,7.77
2017-11-12T01:26:13.001Z,10.93
2017-11-12T01:28:47.797Z,9.63
2017-11-12T01:31:22.577Z,11.33
2017-11-12T01:33:57.382Z,8.20
2017-11-12T01:36:32.308Z,15.20
2017-11-12T01:39:07.114Z,14.07
2017-11-12T01:41:41.982Z,9.33
2017-11-12T01:44:16.833Z,13.90
2017-11-12T01:46:52.432Z,8.10
2017-11-12T01:49:27.229Z,6.23
2017-11-12T01:52:01.610Z,8.43
2017-11-12T01:54:36.514Z,6.00
2017-11-12T01:57:10.977Z,5.77
2017-11-12T01:59:45.690Z,6.63
2017-11-12T02:02:20.441Z,9.33
2017-11-12T02:04:55.174Z,7.27
2017-11-12T02:07:29.780Z,9.63
2017-11-12T02:10:04.184Z,7.67
2017-11-12T02:12:38.610Z,16.40
2017-11-12T02:15:14.440Z,10.80
2017-11-12T02:17:50.029Z,8.53
2017-11-12T02:20:24.861Z,12.33
2017-11-12T02:22:59.329Z,6.47
2017-11-12T02:25:33.477Z,5.73
2017-11-12T02:28:08.248Z,8.10
2017-11-12T02:30:43.203Z,12.30
2017-11-12T02:33:18.000Z,11.57
2017-11-12T02:35:52.609Z,7.67
2017-11-12T02:38:27.308Z,10.60
2017-11-12T02:41:01.898Z,7.67
2017-11-12T02:43:36.858Z,10.60
2017-11-12T02:46:11.477Z,7.47
2017-11-12T02:48:46.221Z,7.60
2017-11-12T02:51:20.960Z,8.83
2017-11-12T02:53:55.708Z,6.50
2017-11-12T02:56:30.129Z,8.20
2017-11-12T02:59:05.239Z,12.07
2017-11-12T03:01:40.166Z,7.90
2017-11-12T03:04:14.971Z,8.10
2017-11-12T03:06:49.823Z,8.40
2017-11-12T03:09:24.785Z,13.47
2017-11-12T03:11:59.385Z,7.80
2017-11-12T03:14:33.977Z,15.43
2017-11-12T03:17:09.213Z,7.80
2017-11-12T03:19:43.961Z,15.13
2017-11-12T03:22:18.689Z,8.63
2017-11-12T03:24:53.345Z,12.27
2017-11-12T03:27:28.006Z,8.67
2017-11-12T03:30:03.133Z,7.50
2017-11-12T03:32:37.930Z,7.67
2017-11-12T03:35:12.726Z,12.67
2017-11-12T03:37:47.132Z,9.23
2017-11-12T03:40:22.084Z,10.90
2017-11-12T03:42:56.989Z,8.00
2017-11-12T03:45:31.673Z,7.90
2017-11-12T03:48:06.773Z,11.03
2017-11-12T03:50:41.150Z,9.73
2017-11-12T03:53:15.682Z,8.37
2017-11-12T03:55:51.029Z,10.00
2017-11-12T03:58:25.369Z,11.80
2017-11-12T04:00:59.449Z,16.93
2017-11-12T04:03:34.098Z,10.47
2017-11-12T04:06:08.865Z,8.50
2017-11-12T04:08:43.434Z,12.47
2017-11-12T04:11:18.008Z,16.13
2017-11-12T04:13:53.000Z,9.23
2017-11-12T04:16:28.170Z,11.80
2017-11-12T04:19:03.743Z,11.33
2017-11-12T04:21:37.976Z,9.43
2017-11-12T04:24:12.629Z,11.10
2017-11-12T04:26:47.680Z,17.47
2017-11-12T04:29:22.417Z,14.03
2017-11-12T04:31:57.141Z,9.80
2017-11-12T04:34:32.260Z,10.30
2017-11-12T04:37:07.079Z,14.33
2017-11-12T04:39:41.767Z,14.53
2017-11-12T04:42:16.858Z,13.27
2017-11-12T04:44:51.922Z,12.93
2017-11-12T04:47:26.881Z,11.80
2017-11-12T04:50:01.705Z,15.50
2017-11-12T04:52:36.510Z,12.23
2017-11-12T04:55:11.072Z,11.83
2017-11-12T04:57:45.806Z,12.13
2017-11-12T05:00:20.309Z,9.53
2017-11-12T05:02:54.306Z,9.83
2017-11-12T05:05:28.353Z,10.60
2017-11-12T05:08:03.485Z,14.30
2017-11-12T05:10:38.042Z,14.40
2017-11-12T05:13:13.208Z,12.90
2017-11-12T05:15:48.061Z,12.13
2017-11-12T05:18:22.745Z,13.83
2017-11-12T05:20:57.469Z,15.13
2017-11-12T05:23:32.580Z,23.57
2017-11-12T05:26:07.097Z,14.53
2017-11-12T05:28:42.189Z,13.03
2017-11-12T05:31:16.885Z,14.63
2017-11-12T05:33:51.794Z,21.63
2017-11-12T05:36:26.518Z,20.60
2017-11-12T05:39:01.225Z,16.03
2017-11-12T05:41:35.817Z,14.10
2017-11-12T05:44:11.432Z,15.33
2017-11-12T05:46:46.904Z,14.70
2017-11-12T05:49:21.804Z,14.03
2017-11-12T05:51:56.534Z,15.70
2017-11-12T05:54:31.166Z,11.80
2017-11-12T05:57:06.162Z,13.80
2017-11-12T05:59:41.074Z,11.33
2017-11-12T06:02:16.088Z,14.10
2017-11-12T06:04:51.302Z,12.67
2017-11-12T06:07:25.732Z,13.73
2017-11-12T06:10:00.545Z,14.67
2017-11-12T06:12:35.532Z,13.57
2017-11-12T06:15:09.978Z,14.10
2017-11-12T06:17:45.277Z,16.40
2017-11-12T06:20:20.094Z,12.87
2017-11-12T06:22:55.509Z,13.47
2017-11-12T06:25:30.792Z,13.90
2017-11-12T06:28:05.569Z,13.67
2017-11-12T06:30:40.477Z,13.63
2017-11-12T06:33:15.116Z,14.30
2017-11-12T06:35:50.109Z,13.33
2017-11-12T06:38:25.219Z,15.13
2017-11-12T06:41:00.293Z,14.77
2017-11-12T06:43:35.174Z,17.23
2017-11-12T06:46:10.377Z,24.10
2017-11-12T06:48:45.601Z,18.60
2017-11-12T06:51:20.528Z,13.13
2017-11-12T06:53:55.559Z,13.97
2017-11-12T06:56:30.871Z,14.13
2017-11-12T06:59:05.786Z,16.30
2017-11-12T07:01:40.405Z,17.37
2017-11-12T07:04:15.517Z,18.33
2017-11-12T07:06:50.635Z,16.23
2017-11-12T07:09:25.607Z,22.93
2017-11-12T07:12:00.717Z,21.17
2017-11-12T07:14:35.737Z,19.23
2017-11-12T07:17:10.664Z,20.10
2017-11-12T07:19:45.689Z,18.17
2017-11-12T07:22:20.754Z,18.57
2017-11-12T07:24:56.525Z,21.50
2017-11-12T07:27:31.333Z,21.43
2017-11-12T07:30:06.158Z,21.83
2017-11-12T07:32:41.314Z,19.93
2017-11-12T07:35:16.429Z,27.50
2017-11-12T07:37:51.846Z,25.33
2017-11-12T07:40:27.042Z,24.03
2017-11-12T07:43:01.845Z,25.53
2017-11-12T07:45:36.398Z,22.17
2017-11-12T07:48:11.569Z,24.93
2017-11-12T07:50:46.397Z,27.37
2017-11-12T07:53:20.814Z,26.43
2017-11-12T07:55:55.837Z,26.43
2017-11-12T07:58:30.854Z,29.90
2017-11-12T08:01:06.038Z,27.83
2017-11-12T08:03:40.489Z,29.63
2017-11-12T08:06:15.510Z,36.27
2017-11-12T08:08:49.911Z,32.27
2017-11-12T08:11:24.990Z,27.97
2017-11-12T08:13:59.689Z,28.07
2017-11-12T08:16:34.810Z,34.13
2017-11-12T08:19:09.822Z,33.03
2017-11-12T08:21:44.982Z,33.40
2017-11-12T08:24:19.956Z,32.83
2017-11-12T08:26:55.054Z,39.67
2017-11-12T08:29:30.314Z,42.90
2017-11-12T08:32:05.136Z,42.50
2017-11-12T08:34:39.585Z,41.63
2017-11-12T08:37:14.725Z,42.53
2017-11-12T08:39:49.777Z,42.63
2017-11-12T08:42:24.786Z,44.77
2017-11-12T08:44:59.801Z,44.53
2017-11-12T08:47:35.217Z,45.60
2017-11-12T08:50:10.157Z,50.50
2017-11-12T08:52:45.144Z,54.40
2017-11-12T08:55:19.293Z,41.43
2017-11-12T08:57:54.273Z,54.87
2017-11-12T09:00:29.564Z,51.53
2017-11-12T09:03:04.106Z,62.70
2017-11-12T09:05:40.001Z,59.57
2017-11-12T09:08:15.569Z,56.70
2017-11-12T09:10:50.590Z,61.27
2017-11-12T09:13:25.894Z,63.80
2017-11-12T09:16:00.507Z,56.63
2017-11-12T09:18:35.557Z,78.57
2017-11-12T09:21:10.113Z,62.07
2017-11-12T09:23:44.943Z,62.37
2017-11-12T09:26:19.758Z,67.67
2017-11-12T09:28:54.377Z,62.23
2017-11-12T09:31:29.189Z,75.37
2017-11-12T09:34:03.781Z,59.80
2017-11-12T09:36:38.543Z,75.57
2017-11-12T09:39:12.777Z,66.03
2017-11-12T09:41:48.146Z,67.63
2017-11-12T09:44:22.793Z,68.90
2017-11-12T09:46:59.733Z,66.83
2017-11-12T09:49:33.841Z,55.83
2017-11-12T09:52:09.037Z,74.23
2017-11-12T09:54:44.342Z,64.87
2017-11-12T09:57:19.337Z,60.80
2017-11-12T09:59:54.358Z,65.50
2017-11-12T10:02:29.366Z,74.13
2017-11-12T10:05:04.312Z,69.47
2017-11-12T10:07:39.304Z,62.10
2017-11-12T10:10:14.413Z,70.77
2017-11-12T10:12:49.765Z,71.43
2017-11-12T10:15:24.955Z,70.03
2017-11-12T10:18:01.181Z,69.57
2017-11-12T10:20:36.249Z,70.23
2017-11-12T10:23:11.370Z,64.03
2017-11-12T10:25:46.350Z,53.70
2017-11-12T10:28:21.607Z,53.40
2017-11-12T10:30:57.470Z,58.60
2017-11-12T10:33:32.459Z,55.10
2017-11-12T10:36:07.764Z,61.97
2017-11-12T10:38:42.669Z,61.23
2017-11-12T10:41:17.697Z,56.63
2017-11-12T10:43:52.821Z,60.07
2017-11-12T10:46:28.264Z,55.20
2017-11-12T10:49:03.153Z,54.87
2017-11-12T10:51:38.361Z,62.50
2017-11-12T10:54:13.468Z,60.97
2017-11-12T10:56:48.000Z,57.77
2017-11-12T10:59:22.921Z,57.87
2017-11-12T11:01:57.752Z,56.97
2017-11-12T11:04:32.645Z,65.70
2017-11-12T11:07:07.613Z,57.43
2017-11-12T11:09:42.025Z,51.10
2017-11-12T11:12:17.151Z,58.73
2017-11-12T11:14:53.005Z,63.97
2017-11-12T11:17:27.901Z,51.53
2017-11-12T11:20:03.085Z,48.50
2017-11-12T11:22:37.793Z,50.53
2017-11-12T11:25:12.889Z,53.87
2017-11-12T11:27:47.718Z,45.90
2017-11-12T11:30:23.378Z,44.50
2017-11-12T11:32:58.348Z,50.90
2017-11-12T11:35:33.123Z,46.37
2017-11-12T11:38:08.304Z,53.73
2017-11-12T11:40:43.607Z,46.60
2017-11-12T11:43:18.229Z,48.73
2017-11-12T11:45:53.817Z,43.27
2017-11-12T11:48:29.141Z,48.93
2017-11-12T11:51:04.054Z,50.47
2017-11-12T11:53:39.294Z,40.60
2017-11-12T11:56:14.816Z,42.40
2017-11-12T11:58:49.905Z,39.53
2017-11-12T12:01:25.691Z,43.03
2017-11-12T12:04:00.985Z,43.03
2017-11-12T12:06:35.968Z,41.70
2017-11-12T12:09:11.199Z,44.90
2017-11-12T12:11:46.402Z,32.93
2017-11-12T12:14:21.583Z,36.33
2017-11-12T12:16:56.234Z,44.03
2017-11-12T12:19:31.204Z,32.90
2017-11-12T12:22:06.013Z,29.83
2017-11-12T12:24:41.106Z,34.33
2017-11-12T12:27:15.993Z,24.30
2017-11-12T12:29:50.988Z,20.70
2017-11-12T12:32:26.100Z,20.33
2017-11-12T12:35:01.202Z,15.63
2017-11-12T12:37:36.097Z,14.63
2017-11-12T12:40:11.131Z,19.10
2017-11-12T12:42:46.518Z,17.40
2017-11-12T12:45:21.709Z,16.23
2017-11-12T12:47:56.097Z,15.27
2017-11-12T12:50:30.597Z,15.80
2017-11-12T12:53:05.497Z,17.53
2017-11-12T12:55:40.798Z,20.33
2017-11-12T12:58:15.806Z,15.00
2017-11-12T13:00:51.053Z,17.97
2017-11-12T13:03:25.874Z,16.13
2017-11-12T13:06:00.485Z,16.40
2017-11-12T13:08:35.787Z,15.03
2017-11-12T13:11:11.017Z,15.60
2017-11-12T13:13:46.017Z,11.80
2017-11-12T13:16:21.056Z,12.30
2017-11-12T13:18:56.072Z,12.83
2017-11-12T13:21:30.743Z,10.67
2017-11-12T13:24:05.070Z,13.17
2017-11-12T13:26:39.325Z,12.03
2017-11-12T13:29:14.437Z,11.57
2017-11-12T13:31:49.066Z,17.50
2017-11-12T13:34:24.046Z,10.33
2017-11-12T13:36:58.718Z,8.80
2017-11-12T13:39:33.816Z,8.63
2017-11-12T13:42:08.653Z,8.37
2017-11-12T13:44:43.437Z,9.00
2017-11-12T13:47:18.706Z,8.13
2017-11-12T13:49:53.415Z,9.03
2017-11-12T13:52:28.435Z,8.80
2017-11-12T13:55:03.814Z,7.90
2017-11-12T13:57:38.760Z,9.60
2017-11-12T14:00:14.034Z,8.50
2017-11-12T14:02:49.633Z,10.23
2017-11-12T14:05:24.518Z,7.63
2017-11-12T14:07:59.081Z,20.07
2017-11-12T14:10:34.070Z,9.50
2017-11-12T14:13:08.834Z,7.10
2017-11-12T14:15:43.725Z,7.17
2017-11-12T14:18:18.916Z,7.27
2017-11-12T14:20:54.189Z,7.67
2017-11-12T14:23:28.694Z,7.73
2017-11-12T14:26:03.769Z,9.70
2017-11-12T14:28:38.649Z,7.10
2017-11-12T14:31:13.640Z,7.13
2017-11-12T14:33:48.506Z,7.30
2017-11-12T14:36:24.285Z,9.50
2017-11-12T14:38:59.087Z,8.77
2017-11-12T14:41:34.117Z,7.60
2017-11-12T14:44:09.025Z,10.33
2017-11-12T14:46:43.946Z,11.20
2017-11-12T14:49:18.850Z,8.47
2017-11-12T14:51:53.672Z,9.20
2017-11-12T14:54:28.630Z,8.37
2017-11-12T14:57:03.789Z,7.63
2017-11-12T14:59:38.437Z,11.70
2017-11-12T15:02:13.593Z,8.80
2017-11-12T15:04:48.397Z,9.00
2017-11-12T15:07:22.989Z,7.67
2017-11-12T15:09:57.841Z,5.97
2017-11-12T15:12:32.472Z,5.30
2017-11-12T15:15:07.189Z,6.70
2017-11-12T15:17:42.105Z,9.83
2017-11-12T15:20:17.086Z,6.63
2017-11-12T15:22:51.981Z,7.57
2017-11-12T15:25:26.785Z,7.33
2017-11-12T15:28:01.770Z,9.57
2017-11-12T15:30:36.578Z,11.77
2017-11-12T15:33:11.302Z,15.67
2017-11-12T15:35:46.412Z,13.47
2017-11-12T15:38:21.607Z,6.77
2017-11-12T15:40:56.458Z,9.30
2017-11-12T15:43:31.590Z,12.53
2017-11-12T15:46:06.394Z,7.33
2017-11-12T15:48:41.561Z,5.67
2017-11-12T15:51:16.651Z,6.03
2017-11-12T15:53:51.498Z,7.03
2017-11-12T15:56:27.307Z,7.17
2017-11-12T15:59:01.986Z,10.93
2017-11-12T16:01:36.947Z,13.77
2017-11-12T16:04:11.733Z,7.63
2017-11-12T16:06:46.571Z,7.07
2017-11-12T16:09:22.413Z,6.93
2017-11-12T16:11:57.369Z,6.97
2017-11-12T16:14:32.146Z,8.73
2017-11-12T16:17:07.032Z,6.60
2017-11-12T16:19:41.829Z,8.73
2017-11-12T16:22:16.591Z,7.90
2017-11-12T16:24:51.287Z,7.70
2017-11-12T16:27:26.166Z,6.83
2017-11-12T16:30:01.362Z,8.27
2017-11-12T16:32:37.451Z,8.00
2017-11-12T16:35:12.925Z,7.67
2017-11-12T16:37:47.734Z,8.83
2017-11-12T16:40:22.649Z,8.10
2017-11-12T16:42:57.470Z,9.87
2017-11-12T16:45:32.681Z,9.10
2017-11-12T16:48:07.894Z,8.53
2017-11-12T16:50:43.041Z,8.37
2017-11-12T16:53:18.132Z,11.03
2017-11-12T16:55:53.269Z,10.57
2017-11-12T16:58:28.198Z,22.70
2017-11-12T17:01:03.058Z,17.17
2017-11-12T17:03:38.277Z,12.27
2017-11-12T17:06:12.897Z,15.63
2017-11-12T17:08:48.117Z,18.50
2017-11-12T17:11:23.322Z,16.20
2017-11-12T17:13:58.346Z,18.87
2017-11-12T17:16:33.499Z,26.77
2017-11-12T17:19:08.266Z,36.73
2017-11-12T17:21:43.186Z,31.03
2017-11-12T17:24:18.357Z,44.00
2017-11-12T17:26:53.446Z,23.27
2017-11-12T17:29:28.808Z,16.53
2017-11-12T17:32:03.723Z,16.47
2017-11-12T17:34:38.371Z,18.27
2017-11-12T17:37:13.851Z,17.67
2017-11-12T17:39:48.982Z,18.20
2017-11-12T17:42:23.779Z,15.67
2017-11-12T17:44:58.300Z,14.47
2017-11-12T17:47:33.109Z,18.00
2017-11-12T17:50:08.133Z,15.87
2017-11-12T17:52:43.141Z,17.13
2017-11-12T17:55:18.370Z,15.53
2017-11-12T17:57:53.274Z,15.23
2017-11-12T18:00:28.597Z,18.17
2017-11-12T18:03:03.258Z,23.13
2017-11-12T18:05:38.470Z,26.03
2017-11-12T18:08:13.461Z,23.47
2017-11-12T18:10:48.563Z,20.73
2017-11-12T18:13:23.622Z,26.77
2017-11-12T18:15:59.462Z,19.43
2017-11-12T18:18:34.425Z,18.43
2017-11-12T18:21:09.457Z,22.13
2017-11-12T18:23:44.554Z,17.17
2017-11-12T18:26:19.742Z,19.43
2017-11-12T18:28:54.137Z,20.70
2017-11-12T18:31:29.040Z,22.80
2017-11-12T18:34:04.313Z,20.27
2017-11-12T18:36:39.049Z,17.53
2017-11-12T18:39:14.066Z,20.43
2017-11-12T18:41:48.885Z,20.23
2017-11-12T18:44:23.970Z,22.10
2017-11-12T18:46:58.694Z,20.00
2017-11-12T18:49:33.202Z,25.17
2017-11-12T18:52:08.094Z,25.70
2017-11-12T18:54:46.251Z,22.70
2017-11-12T19:10:58.169Z,24.47
2017-11-12T19:13:32.969Z,23.83
2017-11-12T19:16:07.721Z,31.00
2017-11-12T19:32:13.064Z,21.47
2017-11-12T19:34:47.892Z,26.33
2017-11-12T19:37:22.860Z,24.23
2017-11-12T19:39:57.881Z,26.13
2017-11-12T19:42:32.892Z,24.33
2017-11-12T19:45:07.882Z,24.77
2017-11-12T19:47:43.130Z,22.20
2017-11-12T19:50:18.368Z,22.80
2017-11-12T19:52:53.617Z,25.00
2017-11-12T19:55:28.669Z,27.60
2017-11-12T19:58:03.557Z,26.30
2017-11-12T20:00:38.930Z,23.43
2017-11-12T20:03:13.872Z,22.40
2017-11-12T20:05:49.008Z,23.20
2017-11-12T20:08:24.053Z,24.13
2017-11-12T20:10:58.865Z,25.53
2017-11-12T20:13:34.128Z,25.47
2017-11-12T20:16:09.004Z,28.87
2017-11-12T20:18:43.995Z,23.60
2017-11-12T20:21:19.232Z,20.93
2017-11-12T20:23:54.569Z,19.87
2017-11-12T20:26:29.872Z,24.70
2017-11-12T20:29:04.562Z,25.43
2017-11-12T20:31:39.381Z,22.77
2017-11-12T20:34:14.117Z,21.30
2017-11-12T20:36:48.940Z,28.70
2017-11-12T20:39:24.042Z,29.10
2017-11-12T20:41:59.027Z,29.23
2017-11-12T20:44:33.921Z,27.50
2017-11-12T20:47:08.816Z,29.47
2017-11-12T20:49:43.267Z,30.27
2017-11-12T20:52:18.989Z,29.50
2017-11-12T20:54:53.891Z,29.90
2017-11-12T20:57:28.628Z,29.67
2017-11-12T21:00:03.411Z,30.87
2017-11-12T21:02:38.120Z,30.40
2017-11-12T21:05:14.372Z,28.77
2017-11-12T21:07:48.593Z,32.83
2017-11-12T21:10:23.616Z,30.70
2017-11-12T21:12:58.340Z,27.67
2017-11-12T21:15:33.280Z,27.87
2017-11-12T21:18:08.385Z,29.53
2017-11-12T21:20:43.257Z,30.13
2017-11-12T21:23:24.055Z,26.00
2017-11-12T21:25:58.508Z,28.97
2017-11-12T21:28:43.170Z,28.97
2017-11-12T21:31:21.676Z,27.00
2017-11-12T21:33:58.004Z,29.90
2017-11-12T21:36:45.977Z,25.87
2017-11-12T21:39:21.077Z,24.37
2017-11-12T21:41:56.029Z,25.53
2017-11-12T21:44:30.876Z,26.47
2017-11-12T21:47:06.057Z,25.10
2017-11-12T21:49:41.077Z,28.23
2017-11-12T21:52:16.001Z,27.80
2017-11-12T21:54:51.069Z,23.20
2017-11-12T21:57:26.437Z,23.40
2017-11-12T22:00:00.969Z,21.73
2017-11-12T22:02:35.869Z,22.87
2017-11-12T22:05:10.832Z,22.77
2017-11-12T22:07:45.790Z,21.23
2017-11-12T22:10:20.965Z,20.40
2017-11-12T22:12:55.854Z,21.73
2017-11-12T22:15:30.705Z,21.97
2017-11-12T22:18:05.934Z,17.70
2017-11-12T22:20:40.771Z,22.80
2017-11-12T22:23:15.557Z,20.73
2017-11-12T22:25:50.503Z,16.80
2017-11-12T22:28:25.308Z,24.53
2017-11-12T22:31:00.216Z,20.70
2017-11-12T22:33:35.152Z,20.47
2017-11-12T22:36:10.115Z,16.83
2017-11-12T22:38:45.309Z,18.30
2017-11-12T22:41:20.324Z,20.30
2017-11-12T22:43:55.384Z,18.50
2017-11-12T22:46:30.537Z,18.80
2017-11-12T22:49:05.840Z,23.93
2017-11-12T22:51:40.927Z,17.90
2017-11-12T22:54:15.352Z,16.80
2017-11-12T22:56:50.351Z,19.07
2017-11-12T22:59:25.559Z,17.30
2017-11-12T23:02:00.553Z,17.90
2017-11-12T23:04:35.896Z,21.80
2017-11-12T23:07:11.092Z,17.53
2017-11-12T23:09:46.248Z,16.13
2017-11-12T23:12:21.136Z,16.27
2017-11-12T23:14:55.956Z,19.13
2017-11-12T23:17:30.780Z,15.10
2017-11-12T23:20:05.515Z,15.10
2017-11-12T23:22:40.548Z,12.93
2017-11-12T23:25:15.240Z,14.00
2017-11-12T23:27:50.238Z,14.50
2017-11-12T23:30:25.821Z,13.13
2017-11-12T23:33:00.537Z,14.10
2017-11-12T23:35:35.378Z,14.87
2017-11-12T23:38:10.310Z,14.57
2017-11-12T23:40:45.081Z,12.93
2017-11-12T23:43:20.188Z,17.17
2017-11-12T23:45:55.119Z,11.10
2017-11-12T23:48:29.949Z,12.20
2017-11-12T23:51:05.096Z,11.63
2017-11-12T23:53:40.329Z,10.20
2017-11-12T23:56:15.480Z,10.07
2017-11-12T23:58:50.713Z,11.47
